createdAt,value
2018-12-30T00:01:47.678Z,101465.25
2018-12-30T00:04:20.743Z,101464.19
2018-12-30T00:06:54.850Z,101463.19
2018-12-30T00:09:28.350Z,101464.31
2018-12-30T00:12:01.322Z,101468.53
2018-12-30T00:14:34.853Z,101466.28
2018-12-30T00:17:09.571Z,101464.25
2018-12-30T00:19:42.770Z,101459.03
2018-12-30T00:22:15.752Z,101463.44
2018-12-30T00:24:48.747Z,101473.22
2018-12-30T00:27:21.898Z,101472.25
2018-12-30T00:29:54.994Z,101469.42
2018-12-30T00:32:28.363Z,101461.05
2018-12-30T00:35:01.332Z,101463.52
2018-12-30T00:37:34.398Z,101462.42
2018-12-30T00:40:07.552Z,101466.47
2018-12-30T00:42:40.937Z,101474.48
2018-12-30T00:45:13.941Z,101470.47
2018-12-30T00:47:47.569Z,101472.32
2018-12-30T00:50:20.576Z,101470.98
2018-12-30T00:52:53.775Z,101475.80
2018-12-30T00:55:26.889Z,101474.05
2018-12-30T00:57:59.878Z,101471.64
2018-12-30T01:00:33.332Z,101480.38
2018-12-30T01:03:07.239Z,101476.87
2018-12-30T01:05:40.344Z,101479.78
2018-12-30T01:08:13.407Z,101473.41
2018-12-30T01:10:46.369Z,101467.68
2018-12-30T01:13:19.476Z,101470.53
2018-12-30T01:15:52.642Z,101473.05
2018-12-30T01:18:25.623Z,101472.66
2018-12-30T01:20:58.568Z,101492.05
2018-12-30T01:23:31.790Z,101484.20
2018-12-30T01:26:05.369Z,101495.89
2018-12-30T01:28:38.098Z,101499.67
2018-12-30T01:31:10.990Z,101490.63
2018-12-30T01:33:44.064Z,101490.09
2018-12-30T01:36:17.041Z,101482.58
2018-12-30T01:38:49.984Z,101491.87
2018-12-30T01:41:23.096Z,101491.07
2018-12-30T01:43:56.298Z,101482.82
2018-12-30T01:46:29.492Z,101486.53
2018-12-30T01:49:02.654Z,101493.54
2018-12-30T01:51:35.788Z,101490.23
2018-12-30T01:54:08.817Z,101493.53
2018-12-30T01:56:41.862Z,101491.45
2018-12-30T01:59:14.848Z,101479.92
2018-12-30T02:01:47.708Z,101495.58
2018-12-30T02:04:20.829Z,101491.70
2018-12-30T02:06:54.000Z,101495.52
2018-12-30T02:09:27.080Z,101498.31
2018-12-30T02:12:00.245Z,101494.87
2018-12-30T02:14:33.982Z,101492.33
2018-12-30T02:17:07.260Z,101493.19
2018-12-30T02:19:40.440Z,101495.19
2018-12-30T02:22:13.500Z,101486.98
2018-12-30T02:24:47.071Z,101492.17
2018-12-30T02:27:20.205Z,101493.97
2018-12-30T02:29:54.778Z,101494.78
2018-12-30T02:32:27.759Z,101495.78
2018-12-30T02:35:01.654Z,101494.50
2018-12-30T02:37:35.900Z,101498.86
2018-12-30T02:40:09.104Z,101496.12
2018-12-30T02:42:42.193Z,101489.19
2018-12-30T02:45:15.435Z,101480.52
2018-12-30T02:47:48.834Z,101479.83
2018-12-30T02:50:23.659Z,101479.72
2018-12-30T02:52:58.617Z,101472.67
2018-12-30T02:55:31.954Z,101481.80
2018-12-30T02:58:05.575Z,101481.17
2018-12-30T03:00:39.187Z,101476.30
2018-12-30T03:03:12.779Z,101472.83
2018-12-30T03:05:46.982Z,101471.88
2018-12-30T03:08:20.767Z,101469.58
2018-12-30T03:10:54.249Z,101467.25
2018-12-30T03:13:27.325Z,101468.23
2018-12-30T03:16:00.440Z,101462.66
2018-12-30T03:18:33.425Z,101458.16
2018-12-30T03:21:06.684Z,101456.15
2018-12-30T03:23:39.870Z,101450.70
2018-12-30T03:26:12.996Z,101448.38
2018-12-30T03:28:45.946Z,101440.73
2018-12-30T03:31:18.966Z,101435.66
2018-12-30T03:33:52.082Z,101438.17
2018-12-30T03:36:25.359Z,101431.65
2018-12-30T03:38:58.575Z,101428.77
2018-12-30T03:41:32.294Z,101428.92
2018-12-30T03:44:05.494Z,101436.34
2018-12-30T03:46:38.537Z,101429.14
2018-12-30T03:49:11.457Z,101429.14
2018-12-30T03:51:44.315Z,101424.14
2018-12-30T03:54:17.322Z,101412.04
2018-12-30T03:56:50.326Z,101411.77
2018-12-30T03:59:23.433Z,101410.57
2018-12-30T04:01:56.730Z,101406.55
2018-12-30T04:04:29.931Z,101400.52
2018-12-30T04:07:04.983Z,101402.08
2018-12-30T04:09:38.056Z,101395.73
2018-12-30T04:12:13.829Z,101392.81
2018-12-30T04:14:45.509Z,101389.86
2018-12-30T04:17:19.437Z,101383.86
2018-12-30T04:19:52.815Z,101388.12
2018-12-30T04:22:26.057Z,101388.52
2018-12-30T04:24:58.850Z,101383.39
2018-12-30T04:27:32.271Z,101380.34
2018-12-30T04:30:06.402Z,101380.23
2018-12-30T04:32:40.040Z,101381.06
2018-12-30T04:35:12.901Z,101380.69
2018-12-30T04:37:45.870Z,101385.69
2018-12-30T04:40:18.959Z,101389.93
2018-12-30T04:42:51.790Z,101382.19
2018-12-30T04:45:24.842Z,101388.64
2018-12-30T04:47:58.170Z,101384.42
2018-12-30T04:50:30.888Z,101381.74
2018-12-30T04:53:03.852Z,101383.78
2018-12-30T04:55:36.829Z,101384.45
2018-12-30T04:58:10.090Z,101387.89
2018-12-30T05:00:43.567Z,101393.27
2018-12-30T05:03:17.284Z,101391.59
2018-12-30T05:05:50.582Z,101389.21
2018-12-30T05:08:23.781Z,101385.28
2018-12-30T05:10:56.642Z,101378.81
2018-12-30T05:13:29.750Z,101386.16
2018-12-30T05:16:02.491Z,101395.09
2018-12-30T05:18:35.531Z,101392.84
2018-12-30T05:21:08.463Z,101391.64
2018-12-30T05:23:42.093Z,101393.02
2018-12-30T05:26:15.610Z,101395.41
2018-12-30T05:28:48.713Z,101402.95
2018-12-30T05:31:21.549Z,101407.75
2018-12-30T05:33:54.405Z,101409.16
2018-12-30T05:36:27.263Z,101413.33
2018-12-30T05:39:00.470Z,101421.62
2018-12-30T05:41:33.496Z,101418.20
2018-12-30T05:44:06.526Z,101422.58
2018-12-30T05:46:39.445Z,101419.30
2018-12-30T05:49:12.423Z,101420.59
2018-12-30T05:51:45.403Z,101420.34
2018-12-30T05:54:18.410Z,101425.90
2018-12-30T05:56:51.314Z,101428.12
2018-12-30T05:59:24.634Z,101425.59
2018-12-30T06:01:57.757Z,101424.83
2018-12-30T06:04:31.200Z,101427.28
2018-12-30T06:07:04.292Z,101427.72
2018-12-30T06:09:37.314Z,101433.91
2018-12-30T06:12:10.340Z,101437.34
2018-12-30T06:14:43.454Z,101434.02
2018-12-30T06:17:16.588Z,101434.97
2018-12-30T06:19:49.850Z,101433.22
2018-12-30T06:22:22.875Z,101434.92
2018-12-30T06:24:55.870Z,101437.62
2018-12-30T06:27:29.304Z,101437.34
2018-12-30T06:30:02.363Z,101436.19
2018-12-30T06:32:35.374Z,101441.58
2018-12-30T06:35:08.364Z,101433.03
2018-12-30T06:37:42.353Z,101434.92
2018-12-30T06:40:15.372Z,101441.20
2018-12-30T06:42:48.458Z,101447.48
2018-12-30T06:45:22.625Z,101449.33
2018-12-30T06:48:05.097Z,101456.92
2018-12-30T06:50:42.973Z,101462.03
2018-12-30T06:53:16.785Z,101462.80
2018-12-30T06:55:51.595Z,101464.36
2018-12-30T06:58:26.691Z,101461.11
2018-12-30T07:01:00.241Z,101463.23
2018-12-30T07:03:35.191Z,101456.94
2018-12-30T07:06:27.680Z,101460.14
2018-12-30T07:09:00.732Z,101464.74
2018-12-30T07:11:33.729Z,101465.91
2018-12-30T07:14:09.169Z,101472.55
2018-12-30T07:16:41.265Z,101468.34
2018-12-30T07:19:14.043Z,101470.25
2018-12-30T07:21:47.339Z,101472.09
2018-12-30T07:24:20.733Z,101473.09
2018-12-30T07:26:53.750Z,101473.05
2018-12-30T07:29:26.910Z,101478.44
2018-12-30T07:31:59.904Z,101484.98
2018-12-30T07:34:34.460Z,101484.63
2018-12-30T07:37:07.448Z,101484.09
2018-12-30T07:39:40.781Z,101486.80
2018-12-30T07:42:14.670Z,101485.39
2018-12-30T07:44:47.403Z,101486.88
2018-12-30T07:47:20.341Z,101490.23
2018-12-30T07:49:53.679Z,101489.58
2018-12-30T07:52:26.873Z,101494.79
2018-12-30T07:55:00.083Z,101494.18
2018-12-30T07:57:33.370Z,101506.38
2018-12-30T08:00:07.906Z,101501.35
2018-12-30T08:02:40.529Z,101495.04
2018-12-30T08:05:13.259Z,101499.00
2018-12-30T08:07:46.239Z,101501.66
2018-12-30T08:10:19.311Z,101499.58
2018-12-30T08:12:52.498Z,101497.23
2018-12-30T08:15:25.449Z,101500.34
2018-12-30T08:18:04.054Z,101498.55
2018-12-30T08:20:38.907Z,101499.58
2018-12-30T08:23:11.444Z,101504.86
2018-12-30T08:25:44.363Z,101511.67
2018-12-30T08:28:24.842Z,101506.84
2018-12-30T08:30:52.397Z,101508.63
2018-12-30T08:33:25.552Z,101515.63
2018-12-30T08:35:58.595Z,101523.63
2018-12-30T08:38:31.646Z,101521.08
2018-12-30T08:41:10.460Z,101524.55
2018-12-30T08:43:43.444Z,101522.05
2018-12-30T08:46:16.369Z,101527.30
2018-12-30T08:48:49.790Z,101532.28
2018-12-30T08:51:22.863Z,101531.98
2018-12-30T08:53:56.391Z,101536.41
2018-12-30T08:56:29.790Z,101528.98
2018-12-30T08:59:03.291Z,101533.75
2018-12-30T09:01:36.521Z,101541.39
2018-12-30T09:04:09.474Z,101529.25
2018-12-30T09:06:42.645Z,101536.83
2018-12-30T09:09:15.703Z,101536.23
2018-12-30T09:11:48.833Z,101532.79
2018-12-30T09:14:22.157Z,101537.53
2018-12-30T09:16:55.638Z,101533.84
2018-12-30T09:19:28.799Z,101533.96
2018-12-30T09:22:01.810Z,101537.76
2018-12-30T09:24:34.946Z,101541.25
2018-12-30T09:27:08.093Z,101542.68
2018-12-30T09:29:41.094Z,101538.14
2018-12-30T09:32:14.163Z,101539.00
2018-12-30T09:34:47.347Z,101534.85
2018-12-30T09:37:20.470Z,101538.02
2018-12-30T09:39:53.430Z,101538.20
2018-12-30T09:42:28.396Z,101542.08
2018-12-30T09:45:01.370Z,101536.48
2018-12-30T09:47:34.388Z,101538.55
2018-12-30T09:50:07.799Z,101539.32
2018-12-30T09:52:40.778Z,101532.42
2018-12-30T09:55:13.709Z,101536.74
2018-12-30T09:57:55.729Z,101536.74
2018-12-30T10:00:28.931Z,101539.00
2018-12-30T10:03:01.838Z,101540.30
2018-12-30T10:05:35.014Z,101540.80
2018-12-30T10:08:07.882Z,101546.06
2018-12-30T10:10:40.911Z,101544.75
2018-12-30T10:13:14.026Z,101544.66
2018-12-30T10:15:48.127Z,101548.55
2018-12-30T10:18:21.661Z,101551.97
2018-12-30T10:20:54.755Z,101546.45
2018-12-30T10:23:27.860Z,101548.66
2018-12-30T10:26:01.166Z,101544.61
2018-12-30T10:28:34.678Z,101544.61
2018-12-30T10:31:07.776Z,101552.97
2018-12-30T10:33:40.741Z,101552.08
2018-12-30T10:36:13.943Z,101547.22
2018-12-30T10:38:47.011Z,101546.64
2018-12-30T10:41:20.099Z,101542.63
2018-12-30T10:43:53.987Z,101542.63
2018-12-30T10:46:27.613Z,101551.30
2018-12-30T10:49:00.579Z,101549.00
2018-12-30T10:51:33.729Z,101552.09
2018-12-30T10:54:06.521Z,101549.23
2018-12-30T10:56:39.219Z,101553.79
2018-12-30T10:59:12.299Z,101545.92
2018-12-30T11:01:45.165Z,101556.11
2018-12-30T11:04:18.636Z,101558.28
2018-12-30T11:06:53.178Z,101557.88
2018-12-30T11:09:31.068Z,101553.41
2018-12-30T11:12:09.424Z,101551.72
2018-12-30T11:14:42.213Z,101552.70
2018-12-30T11:17:14.875Z,101551.55
2018-12-30T11:19:48.437Z,101556.42
2018-12-30T11:22:21.445Z,101558.20
2018-12-30T11:24:54.335Z,101560.55
2018-12-30T11:27:27.339Z,101556.81
2018-12-30T11:30:00.563Z,101559.37
2018-12-30T11:32:34.799Z,101561.07
2018-12-30T11:35:08.887Z,101557.52
2018-12-30T11:37:42.597Z,101562.46
2018-12-30T11:40:17.504Z,101562.46
2018-12-30T11:42:49.826Z,101562.84
2018-12-30T11:45:22.724Z,101552.50
2018-12-30T11:47:56.193Z,101556.13
2018-12-30T11:50:29.467Z,101558.05
2018-12-30T11:53:02.747Z,101560.70
2018-12-30T11:55:35.710Z,101564.77
2018-12-30T11:58:08.950Z,101570.03
2018-12-30T12:00:41.976Z,101567.17
2018-12-30T12:03:15.756Z,101573.20
2018-12-30T12:05:48.957Z,101575.05
2018-12-30T12:08:22.091Z,101572.48
2018-12-30T12:10:55.194Z,101575.60
2018-12-30T12:13:30.635Z,101580.99
2018-12-30T12:16:03.775Z,101581.69
2018-12-30T12:18:36.886Z,101585.92
2018-12-30T12:21:09.968Z,101584.59
2018-12-30T12:23:43.193Z,101588.30
2018-12-30T12:26:16.470Z,101590.59
2018-12-30T12:28:49.978Z,101593.03
2018-12-30T12:31:23.700Z,101597.36
2018-12-30T12:33:57.383Z,101598.34
2018-12-30T12:36:30.557Z,101591.61
2018-12-30T12:39:03.579Z,101590.45
2018-12-30T12:41:36.735Z,101593.02
2018-12-30T12:44:09.857Z,101598.58
2018-12-30T12:46:42.641Z,101593.84
2018-12-30T12:49:15.586Z,101589.83
2018-12-30T12:51:48.527Z,101589.31
2018-12-30T12:54:31.911Z,101593.25
2018-12-30T12:56:59.712Z,101593.25
2018-12-30T12:59:35.607Z,101598.43
2018-12-30T13:02:08.840Z,101593.51
2018-12-30T13:04:43.465Z,101598.80
2018-12-30T13:07:17.095Z,101598.27
2018-12-30T13:09:50.312Z,101603.23
2018-12-30T13:12:23.510Z,101595.57
2018-12-30T13:14:56.713Z,101603.78
2018-12-30T13:17:29.895Z,101603.73
2018-12-30T13:20:02.959Z,101606.97
2018-12-30T13:22:36.055Z,101606.81
2018-12-30T13:25:09.163Z,101617.10
2018-12-30T13:27:42.265Z,101605.27
2018-12-30T13:30:15.787Z,101610.25
2018-12-30T13:32:49.664Z,101610.65
2018-12-30T13:35:23.810Z,101610.65
2018-12-30T13:37:58.261Z,101612.31
2018-12-30T13:40:32.211Z,101610.06
2018-12-30T13:43:05.942Z,101611.17
2018-12-30T13:45:38.992Z,101610.41
2018-12-30T13:48:12.168Z,101605.17
2018-12-30T13:50:45.145Z,101612.24
2018-12-30T13:53:18.330Z,101611.56
2018-12-30T13:55:58.153Z,101616.16
2018-12-30T13:58:31.231Z,101616.16
2018-12-30T14:01:04.311Z,101618.45
2018-12-30T14:03:37.419Z,101618.76
2018-12-30T14:06:10.575Z,101622.75
2018-12-30T14:08:43.609Z,101622.75
2018-12-30T14:11:17.215Z,101624.44
2018-12-30T14:13:50.210Z,101618.42
2018-12-30T14:16:23.348Z,101611.15
2018-12-30T14:18:56.890Z,101620.27
2018-12-30T14:21:29.975Z,101620.27
2018-12-30T14:24:02.954Z,101613.31
2018-12-30T14:26:35.976Z,101606.52
2018-12-30T14:29:08.978Z,101610.02
2018-12-30T14:31:41.954Z,101607.73
2018-12-30T14:34:15.057Z,101607.73
2018-12-30T14:36:48.011Z,101604.53
2018-12-30T14:39:21.047Z,101608.34
2018-12-30T14:41:54.023Z,101611.20
2018-12-30T14:44:27.232Z,101596.47
2018-12-30T14:47:00.896Z,101603.24
2018-12-30T14:49:34.660Z,101603.24
2018-12-30T14:52:08.312Z,101595.83
2018-12-30T14:54:42.018Z,101599.72
2018-12-30T14:57:16.217Z,101592.05
2018-12-30T14:59:50.232Z,101592.05
2018-12-30T15:02:23.890Z,101594.20
2018-12-30T15:04:57.196Z,101594.54
2018-12-30T15:07:30.233Z,101591.25
2018-12-30T15:10:03.707Z,101592.44
2018-12-30T15:12:36.904Z,101588.56
2018-12-30T15:15:10.982Z,101592.20
2018-12-30T15:17:43.727Z,101595.79
2018-12-30T15:20:19.614Z,101592.10
2018-12-30T15:22:54.238Z,101590.98
2018-12-30T15:25:27.355Z,101589.14
2018-12-30T15:28:00.531Z,101586.64
2018-12-30T15:30:33.534Z,101587.24
2018-12-30T15:33:06.736Z,101588.64
2018-12-30T15:35:39.942Z,101589.78
2018-12-30T15:38:12.963Z,101592.28
2018-12-30T15:40:48.205Z,101590.77
2018-12-30T15:43:21.544Z,101582.42
2018-12-30T15:45:57.839Z,101591.73
2018-12-30T15:48:30.824Z,101598.75
2018-12-30T15:51:04.076Z,101595.63
2018-12-30T15:53:37.240Z,101593.46
2018-12-30T15:56:10.301Z,101593.46
2018-12-30T15:58:43.453Z,101590.34
2018-12-30T16:01:24.007Z,101591.05
2018-12-30T16:03:57.041Z,101596.84
2018-12-30T16:06:30.298Z,101593.87
2018-12-30T16:09:03.323Z,101590.73
2018-12-30T16:11:36.197Z,101590.73
2018-12-30T16:14:09.212Z,101590.73
2018-12-30T16:16:42.225Z,101585.35
2018-12-30T16:19:15.562Z,101585.35
2018-12-30T16:21:48.760Z,101584.69
2018-12-30T16:24:21.898Z,101584.69
2018-12-30T16:26:54.892Z,101583.13
2018-12-30T16:29:27.869Z,101585.70
2018-12-30T16:32:01.207Z,101579.24
2018-12-30T16:34:34.481Z,101579.24
2018-12-30T16:37:07.838Z,101582.86
2018-12-30T16:39:40.921Z,101581.27
2018-12-30T16:42:14.024Z,101583.38
2018-12-30T16:44:46.920Z,101583.38
2018-12-30T16:47:19.972Z,101583.78
2018-12-30T16:49:52.965Z,101589.53
2018-12-30T16:52:26.119Z,101584.36
2018-12-30T16:54:59.249Z,101589.64
2018-12-30T16:57:32.433Z,101586.89
2018-12-30T17:00:06.437Z,101585.84
2018-12-30T17:02:39.601Z,101590.34
2018-12-30T17:05:13.158Z,101584.70
2018-12-30T17:07:46.090Z,101583.84
2018-12-30T17:10:20.125Z,101583.84
2018-12-30T17:12:53.029Z,101582.34
2018-12-30T17:15:25.938Z,101586.27
2018-12-30T17:17:58.820Z,101582.97
2018-12-30T17:20:32.024Z,101588.42
2018-12-30T17:23:04.911Z,101588.42
2018-12-30T17:25:42.947Z,101594.59
2018-12-30T17:28:13.575Z,101598.69
2018-12-30T17:30:46.542Z,101598.69
2018-12-30T17:33:19.561Z,101598.64
2018-12-30T17:35:52.969Z,101598.64
2018-12-30T17:38:26.279Z,101604.78
2018-12-30T17:41:01.674Z,101611.58
2018-12-30T17:43:33.962Z,101609.25
2018-12-30T17:46:07.153Z,101609.33
2018-12-30T17:48:40.483Z,101597.89
2018-12-30T17:51:13.505Z,101603.42
2018-12-30T17:53:46.392Z,101606.63
2018-12-30T17:56:19.294Z,101601.52
2018-12-30T17:58:52.211Z,101602.89
2018-12-30T18:01:25.010Z,101604.08
2018-12-30T18:03:57.761Z,101596.28
2018-12-30T18:06:30.513Z,101594.35
2018-12-30T18:09:03.846Z,101599.57
2018-12-30T18:11:36.874Z,101593.66
2018-12-30T18:14:09.871Z,101590.98
2018-12-30T18:16:43.036Z,101589.61
2018-12-30T18:19:16.212Z,101592.42
2018-12-30T18:21:49.251Z,101590.03
2018-12-30T18:24:22.064Z,101588.83
2018-12-30T18:26:55.087Z,101592.70
2018-12-30T18:29:28.049Z,101584.67
2018-12-30T18:32:02.748Z,101582.52
2018-12-30T18:34:36.810Z,101581.34
2018-12-30T18:37:10.103Z,101574.57
2018-12-30T18:39:46.395Z,101573.77
2018-12-30T18:42:19.788Z,101574.17
2018-12-30T18:44:52.764Z,101579.81
2018-12-30T18:47:25.829Z,101574.59
2018-12-30T18:49:58.963Z,101569.94
2018-12-30T18:52:31.906Z,101569.22
2018-12-30T18:55:04.834Z,101574.49
2018-12-30T18:57:37.987Z,101573.81
2018-12-30T19:00:12.125Z,101575.40
2018-12-30T19:02:45.232Z,101562.91
2018-12-30T19:05:18.168Z,101562.45
2018-12-30T19:07:51.021Z,101557.72
2018-12-30T19:10:24.520Z,101547.22
2018-12-30T19:13:01.195Z,101550.03
2018-12-30T19:15:33.848Z,101550.28
2018-12-30T19:18:06.503Z,101546.86
2018-12-30T19:20:40.557Z,101547.36
2018-12-30T19:23:13.310Z,101542.22
2018-12-30T19:25:46.446Z,101541.77
2018-12-30T19:28:19.910Z,101539.64
2018-12-30T19:30:53.014Z,101537.27
2018-12-30T19:33:26.019Z,101533.56
2018-12-30T19:35:58.955Z,101527.08
2018-12-30T19:38:32.141Z,101526.13
2018-12-30T19:41:05.188Z,101516.84
2018-12-30T19:43:38.397Z,101524.77
2018-12-30T19:46:11.896Z,101521.17
2018-12-30T19:48:45.128Z,101524.23
2018-12-30T19:51:18.026Z,101521.35
2018-12-30T19:53:51.348Z,101520.72
2018-12-30T19:56:24.928Z,101519.02
2018-12-30T19:58:57.730Z,101510.89
2018-12-30T20:01:30.817Z,101512.38
2018-12-30T20:04:03.544Z,101511.30
2018-12-30T20:06:36.488Z,101507.33
2018-12-30T20:09:10.120Z,101508.69
2018-12-30T20:11:43.061Z,101507.61
2018-12-30T20:14:16.004Z,101501.57
2018-12-30T20:16:49.204Z,101508.36
2018-12-30T20:19:25.641Z,101505.80
2018-12-30T20:22:00.131Z,101504.09
2018-12-30T20:24:33.123Z,101503.55
2018-12-30T20:27:06.281Z,101501.25
2018-12-30T20:29:40.409Z,101502.55
2018-12-30T20:32:13.648Z,101511.57
2018-12-30T20:34:46.764Z,101506.75
2018-12-30T20:37:20.301Z,101506.75
2018-12-30T20:39:53.507Z,101506.02
2018-12-30T20:42:26.838Z,101506.02
2018-12-30T20:45:00.396Z,101515.41
2018-12-30T20:47:33.469Z,101517.73
2018-12-30T20:50:06.890Z,101511.30
2018-12-30T20:52:39.818Z,101510.62
2018-12-30T20:55:12.914Z,101522.70
2018-12-30T20:57:45.890Z,101526.03
2018-12-30T21:00:18.965Z,101526.03
2018-12-30T21:02:52.009Z,101517.06
2018-12-30T21:05:25.222Z,101515.95
2018-12-30T21:07:58.923Z,101531.48
2018-12-30T21:10:32.036Z,101519.27
2018-12-30T21:13:05.124Z,101524.26
2018-12-30T21:15:38.035Z,101523.95
2018-12-30T21:18:10.953Z,101523.95
2018-12-30T21:20:44.677Z,101519.08
2018-12-30T21:23:18.445Z,101519.08
2018-12-30T21:25:51.429Z,101514.17
2018-12-30T21:28:24.571Z,101514.17
2018-12-30T21:30:57.465Z,101517.23
2018-12-30T21:33:30.473Z,101517.23
2018-12-30T21:36:03.665Z,101515.97
2018-12-30T21:38:36.657Z,101515.97
2018-12-30T21:41:09.892Z,101518.09
2018-12-30T21:43:42.936Z,101517.52
2018-12-30T21:46:16.057Z,101521.34
2018-12-30T21:48:49.203Z,101510.03
2018-12-30T21:51:22.168Z,101514.07
2018-12-30T21:53:55.327Z,101519.72
2018-12-30T21:56:28.435Z,101513.00
2018-12-30T21:59:01.459Z,101516.47
2018-12-30T22:01:34.375Z,101517.97
2018-12-30T22:04:07.353Z,101517.97
2018-12-30T22:06:40.321Z,101517.97
2018-12-30T22:09:13.339Z,101518.80
2018-12-30T22:11:46.521Z,101520.37
2018-12-30T22:14:19.594Z,101521.89
2018-12-30T22:16:52.547Z,101522.45
2018-12-30T22:19:25.619Z,101517.82
2018-12-30T22:21:58.558Z,101517.92
2018-12-30T22:24:34.152Z,101522.08
2018-12-30T22:27:07.367Z,101523.69
2018-12-30T22:29:43.406Z,101525.82
2018-12-30T22:32:15.302Z,101524.42
2018-12-30T22:34:48.575Z,101523.36
2018-12-30T22:37:21.615Z,101530.30
2018-12-30T22:39:54.809Z,101528.63
2018-12-30T22:42:32.664Z,101532.05
2018-12-30T22:45:02.578Z,101525.09
2018-12-30T22:47:35.725Z,101531.13
2018-12-30T22:50:09.788Z,101533.91
2018-12-30T22:52:42.881Z,101530.75
2018-12-30T22:55:16.065Z,101533.70
2018-12-30T22:57:49.269Z,101532.36
2018-12-30T23:00:23.707Z,101536.42
2018-12-30T23:02:56.612Z,101535.98
2018-12-30T23:05:29.899Z,101530.35
2018-12-30T23:08:02.833Z,101535.05
2018-12-30T23:10:39.425Z,101535.53
2018-12-30T23:13:12.442Z,101535.41
2018-12-30T23:16:04.996Z,101537.21
2018-12-30T23:18:38.425Z,101542.19
2018-12-30T23:21:17.813Z,101547.00
2018-12-30T23:23:51.112Z,101549.52
2018-12-30T23:26:24.570Z,101555.36
2018-12-30T23:28:57.852Z,101556.74
2018-12-30T23:31:31.140Z,101560.91
2018-12-30T23:34:04.204Z,101556.50
2018-12-30T23:36:37.825Z,101565.64
2018-12-30T23:39:11.126Z,101565.43
2018-12-30T23:41:44.338Z,101559.88
2018-12-30T23:44:17.613Z,101566.98
2018-12-30T23:46:51.009Z,101569.18
2018-12-30T23:49:24.082Z,101569.18
2018-12-30T23:51:57.208Z,101566.59
2018-12-30T23:54:30.645Z,101571.33
2018-12-30T23:57:03.869Z,101575.20
2018-12-30T23:59:36.876Z,101574.14
